createdAt,value
2022-09-16T00:00:48.069Z,1.13
2022-09-16T00:03:17.240Z,0.60
2022-09-16T00:05:45.872Z,1.20
2022-09-16T00:08:14.580Z,0.97
2022-09-16T00:10:43.856Z,0.90
2022-09-16T00:13:12.405Z,1.13
2022-09-16T00:15:46.572Z,1.00
2022-09-16T00:18:13.696Z,1.13
2022-09-16T00:20:49.288Z,0.73
2022-09-16T00:23:16.223Z,0.97
2022-09-16T00:25:43.131Z,1.47
2022-09-16T00:28:10.459Z,1.20
2022-09-16T00:30:37.569Z,1.43
2022-09-16T00:33:04.444Z,1.20
2022-09-16T00:35:31.404Z,0.93
2022-09-16T00:37:58.267Z,1.00
2022-09-16T00:40:25.328Z,2.63
2022-09-16T00:42:52.250Z,1.17
2022-09-16T00:45:22.962Z,1.20
2022-09-16T00:47:59.827Z,1.07
2022-09-16T00:50:38.156Z,0.70
2022-09-16T00:53:08.615Z,0.97
2022-09-16T00:55:38.332Z,0.63
2022-09-16T00:58:15.912Z,0.97
2022-09-16T01:00:43.381Z,0.90
2022-09-16T01:03:10.275Z,1.00
2022-09-16T01:05:37.709Z,1.00
2022-09-16T01:08:05.517Z,0.83
2022-09-16T01:10:32.476Z,0.83
2022-09-16T01:13:04.457Z,0.70
2022-09-16T01:15:55.484Z,0.83
2022-09-16T01:18:44.169Z,0.90
2022-09-16T01:21:54.226Z,0.97
2022-09-16T01:24:59.825Z,1.17
2022-09-16T01:28:00.310Z,1.10
2022-09-16T01:30:54.444Z,1.00
2022-09-16T01:33:38.647Z,1.13
2022-09-16T01:37:06.637Z,1.57
2022-09-16T01:39:59.227Z,1.13
2022-09-16T01:42:42.156Z,1.07
2022-09-16T01:45:37.332Z,0.87
2022-09-16T01:48:39.531Z,1.20
2022-09-16T01:51:21.131Z,1.27
2022-09-16T01:54:25.297Z,1.00
2022-09-16T01:57:04.781Z,0.87
2022-09-16T01:59:54.595Z,1.30
2022-09-16T02:02:31.600Z,1.03
2022-09-16T02:05:01.518Z,0.80
2022-09-16T02:07:35.251Z,1.00
2022-09-16T02:10:12.887Z,1.03
2022-09-16T02:12:43.153Z,1.10
2022-09-16T02:15:18.890Z,1.60
2022-09-16T02:17:52.658Z,1.37
2022-09-16T02:20:28.232Z,0.97
2022-09-16T02:23:18.432Z,0.97
2022-09-16T02:25:48.233Z,0.70
2022-09-16T02:28:20.126Z,1.30
2022-09-16T02:30:52.256Z,1.00
2022-09-16T02:33:20.738Z,0.90
2022-09-16T02:35:52.638Z,0.90
2022-09-16T02:38:31.018Z,1.07
2022-09-16T02:41:00.202Z,1.30
2022-09-16T02:43:28.107Z,1.43
2022-09-16T02:46:34.688Z,1.10
2022-09-16T02:49:20.261Z,1.37
2022-09-16T02:52:10.463Z,0.97
2022-09-16T02:54:50.196Z,1.30
2022-09-16T02:57:17.197Z,1.10
2022-09-16T02:59:45.320Z,0.93
2022-09-16T03:02:12.850Z,1.20
2022-09-16T03:04:39.882Z,0.80
2022-09-16T03:07:09.982Z,1.00
2022-09-16T03:09:39.879Z,1.40
2022-09-16T03:12:42.789Z,1.27
2022-09-16T03:15:33.400Z,1.67
2022-09-16T03:18:29.252Z,1.47
2022-09-16T03:21:23.113Z,1.53
2022-09-16T03:24:09.979Z,1.50
2022-09-16T03:26:59.493Z,1.87
2022-09-16T03:29:47.005Z,2.17
2022-09-16T03:32:25.795Z,2.53
2022-09-16T03:35:02.606Z,1.80
2022-09-16T03:37:34.440Z,2.07
2022-09-16T03:40:06.326Z,2.43
2022-09-16T03:42:33.476Z,2.80
2022-09-16T03:45:00.370Z,2.73
2022-09-16T03:47:27.198Z,2.83
2022-09-16T03:49:54.055Z,2.20
2022-09-16T03:52:20.979Z,1.90
2022-09-16T03:54:47.861Z,2.10
2022-09-16T03:57:14.824Z,2.37
2022-09-16T03:59:42.082Z,1.70
2022-09-16T04:02:08.913Z,1.83
2022-09-16T04:04:35.845Z,2.60
2022-09-16T04:07:02.746Z,2.70
2022-09-16T04:09:29.676Z,2.00
2022-09-16T04:11:56.718Z,2.60
2022-09-16T04:14:23.899Z,1.93
2022-09-16T04:16:50.798Z,2.10
2022-09-16T04:19:17.812Z,2.30
2022-09-16T04:21:44.768Z,2.20
2022-09-16T04:24:13.339Z,2.77
2022-09-16T04:26:41.564Z,1.70
2022-09-16T04:29:08.814Z,1.77
2022-09-16T04:31:36.302Z,1.83
2022-09-16T04:34:04.345Z,1.43
2022-09-16T04:36:32.645Z,1.60
2022-09-16T04:38:59.619Z,1.43
2022-09-16T04:41:27.160Z,1.90
2022-09-16T04:43:59.622Z,1.60
2022-09-16T04:46:28.343Z,1.00
2022-09-16T04:48:56.150Z,1.43
2022-09-16T04:51:24.124Z,1.60
2022-09-16T04:53:51.080Z,1.63
2022-09-16T04:56:23.179Z,2.07
2022-09-16T04:58:53.789Z,1.00
2022-09-16T05:01:23.767Z,1.67
2022-09-16T05:03:57.641Z,1.03
2022-09-16T05:06:30.689Z,1.57
2022-09-16T05:08:58.171Z,1.73
2022-09-16T05:11:27.693Z,2.00
2022-09-16T05:13:55.290Z,1.37
2022-09-16T05:16:23.511Z,1.47
2022-09-16T05:18:54.134Z,1.83
2022-09-16T05:21:23.928Z,1.70
2022-09-16T05:23:51.331Z,1.93
2022-09-16T05:26:21.011Z,1.63
2022-09-16T05:28:48.306Z,1.93
2022-09-16T05:31:18.140Z,2.40
2022-09-16T05:33:47.827Z,1.73
2022-09-16T05:36:16.788Z,1.57
2022-09-16T05:38:59.168Z,1.60
2022-09-16T05:41:34.104Z,1.40
2022-09-16T05:44:01.719Z,2.10
2022-09-16T05:46:29.118Z,2.23
2022-09-16T05:48:56.630Z,1.70
2022-09-16T05:51:25.890Z,1.77
2022-09-16T05:53:54.246Z,1.60
2022-09-16T05:56:25.820Z,2.20
2022-09-16T05:58:54.091Z,2.10
2022-09-16T06:01:23.743Z,1.80
2022-09-16T06:03:52.070Z,1.97
2022-09-16T06:06:25.553Z,1.60
2022-09-16T06:09:10.485Z,1.70
2022-09-16T06:11:40.623Z,2.30
2022-09-16T06:14:08.862Z,1.27
2022-09-16T06:16:36.523Z,2.10
2022-09-16T06:19:06.109Z,1.60
2022-09-16T06:21:33.452Z,2.57
2022-09-16T06:24:00.403Z,1.70
2022-09-16T06:26:27.892Z,1.37
2022-09-16T06:28:55.370Z,1.80
2022-09-16T06:31:25.004Z,1.13
2022-09-16T06:33:52.710Z,1.07
2022-09-16T06:36:25.073Z,1.20
2022-09-16T06:38:53.244Z,1.27
2022-09-16T06:41:21.556Z,0.80
2022-09-16T06:43:51.316Z,0.60
2022-09-16T06:46:24.192Z,0.93
2022-09-16T06:48:53.623Z,1.07
2022-09-16T06:51:23.345Z,1.03
2022-09-16T06:53:52.072Z,1.30
2022-09-16T06:56:21.075Z,0.87
2022-09-16T06:58:53.372Z,1.30
2022-09-16T07:01:29.286Z,1.30
2022-09-16T07:03:58.511Z,1.10
2022-09-16T07:06:57.402Z,1.50
2022-09-16T07:09:16.772Z,1.10
2022-09-16T07:11:43.629Z,1.20
2022-09-16T07:14:10.620Z,1.53
2022-09-16T07:16:40.617Z,1.20
2022-09-16T07:19:07.620Z,1.30
2022-09-16T07:21:34.536Z,1.63
2022-09-16T07:24:02.924Z,1.53
2022-09-16T07:26:32.495Z,1.60
2022-09-16T07:29:02.364Z,1.50
2022-09-16T07:31:31.620Z,1.10
2022-09-16T07:34:04.197Z,1.40
2022-09-16T07:36:51.978Z,1.30
2022-09-16T07:39:19.849Z,1.30
2022-09-16T07:41:48.687Z,1.20
2022-09-16T07:44:17.541Z,0.90
2022-09-16T07:46:44.816Z,1.40
2022-09-16T07:49:14.633Z,1.10
2022-09-16T07:51:41.609Z,1.10
2022-09-16T07:54:10.933Z,0.73
2022-09-16T07:56:39.452Z,0.67
2022-09-16T07:59:08.438Z,1.13
2022-09-16T08:01:37.838Z,1.00
2022-09-16T08:04:06.986Z,0.90
2022-09-16T08:06:33.902Z,0.90
2022-09-16T08:09:10.089Z,1.00
2022-09-16T08:11:42.506Z,0.93
2022-09-16T08:14:09.602Z,0.77
2022-09-16T08:16:36.483Z,0.70
2022-09-16T08:19:03.647Z,0.87
2022-09-16T08:21:31.284Z,1.03
2022-09-16T08:23:58.746Z,0.80
2022-09-16T08:26:26.665Z,0.77
2022-09-16T08:29:10.343Z,0.87
2022-09-16T08:31:38.561Z,1.20
2022-09-16T08:34:06.295Z,1.00
2022-09-16T08:36:33.989Z,1.23
2022-09-16T08:39:01.556Z,0.87
2022-09-16T08:42:20.914Z,0.80
2022-09-16T08:45:40.323Z,0.80
2022-09-16T08:48:32.102Z,1.30
2022-09-16T08:51:06.242Z,0.60
2022-09-16T08:53:39.954Z,0.70
2022-09-16T08:56:13.527Z,0.60
2022-09-16T08:58:47.705Z,0.70
2022-09-16T09:02:08.152Z,0.80
2022-09-16T09:04:36.132Z,0.50
2022-09-16T09:07:33.136Z,0.60
2022-09-16T09:10:37.479Z,0.70
2022-09-16T09:13:23.126Z,0.70
2022-09-16T09:15:58.463Z,0.77
2022-09-16T09:19:00.147Z,0.60
2022-09-16T09:21:50.092Z,0.87
2022-09-16T09:24:43.903Z,1.07
2022-09-16T09:27:33.302Z,0.60
2022-09-16T09:30:11.423Z,1.23
2022-09-16T09:37:05.623Z,0.63
2022-09-16T09:39:44.104Z,0.70
2022-09-16T09:42:21.289Z,0.90
2022-09-16T09:45:04.036Z,1.10
2022-09-16T09:47:48.246Z,0.73
2022-09-16T09:50:24.034Z,0.70
2022-09-16T09:53:01.248Z,0.70
2022-09-16T09:55:32.956Z,1.00
2022-09-16T09:58:35.362Z,0.70
2022-09-16T10:01:02.541Z,1.23
2022-09-16T10:03:30.666Z,0.97
2022-09-16T10:05:58.262Z,0.83
2022-09-16T10:08:36.311Z,1.00
2022-09-16T10:11:15.485Z,0.73
2022-09-16T10:13:58.888Z,0.80
2022-09-16T10:16:37.581Z,0.80
2022-09-16T10:19:22.595Z,0.70
2022-09-16T10:21:53.539Z,0.77
2022-09-16T10:24:35.781Z,0.70
2022-09-16T10:27:19.366Z,1.00
2022-09-16T10:29:46.190Z,0.70
2022-09-16T10:32:18.833Z,0.80
2022-09-16T10:34:47.495Z,0.93
2022-09-16T10:37:19.149Z,0.80
2022-09-16T10:39:55.772Z,0.70
2022-09-16T10:42:26.117Z,0.57
2022-09-16T10:44:55.917Z,0.63
2022-09-16T10:47:26.701Z,1.10
2022-09-16T10:49:58.115Z,0.83
2022-09-16T10:52:27.801Z,1.13
2022-09-16T10:54:56.281Z,0.90
2022-09-16T10:57:31.985Z,1.00
2022-09-16T11:00:13.873Z,0.87
2022-09-16T11:03:38.550Z,0.60
2022-09-16T11:06:48.753Z,0.70
2022-09-16T11:09:52.773Z,0.67
2022-09-16T11:12:48.816Z,0.50
2022-09-16T11:15:56.273Z,1.43
2022-09-16T11:18:28.904Z,0.60
2022-09-16T11:21:42.611Z,1.20
2022-09-16T11:24:54.008Z,0.67
2022-09-16T11:27:45.972Z,0.60
2022-09-16T11:30:20.009Z,0.93
2022-09-16T11:33:10.718Z,0.50
2022-09-16T11:36:14.873Z,0.60
2022-09-16T11:39:03.371Z,0.67
2022-09-16T11:41:37.677Z,0.70
2022-09-16T11:44:37.107Z,0.77
2022-09-16T11:47:40.704Z,0.70
2022-09-16T11:50:31.847Z,1.00
2022-09-16T11:53:56.882Z,0.70
2022-09-16T11:56:44.035Z,0.60
2022-09-16T12:03:00.908Z,0.63
2022-09-16T12:05:53.587Z,0.60
2022-09-16T12:08:50.242Z,0.70
2022-09-16T12:11:39.669Z,0.47
2022-09-16T12:14:24.175Z,0.60
2022-09-16T12:16:57.307Z,1.00
2022-09-16T12:19:46.371Z,0.67
2022-09-16T12:22:20.556Z,0.80
2022-09-16T12:25:08.918Z,2.60
2022-09-16T12:27:58.781Z,0.50
2022-09-16T12:30:34.490Z,0.40
2022-09-16T12:33:22.089Z,0.43
2022-09-16T12:35:54.687Z,1.00
2022-09-16T12:38:22.927Z,0.80
2022-09-16T12:41:24.706Z,0.60
2022-09-16T12:44:33.475Z,0.60
2022-09-16T12:47:39.573Z,0.50
2022-09-16T12:50:32.241Z,0.73
2022-09-16T12:53:46.926Z,0.53
2022-09-16T13:17:13.912Z,0.50
2022-09-16T13:26:08.681Z,0.60
2022-09-16T13:28:38.532Z,0.73
2022-09-16T13:31:20.507Z,0.60
2022-09-16T13:34:14.518Z,0.40
2022-09-16T13:36:41.418Z,0.50
2022-09-16T13:39:14.404Z,0.53
2022-09-16T13:41:42.553Z,0.90
2022-09-16T13:44:40.443Z,0.60
2022-09-16T13:47:34.232Z,0.67
2022-09-16T13:50:14.115Z,0.50
2022-09-16T13:52:42.695Z,0.60
2022-09-16T13:55:22.554Z,0.60
2022-09-16T13:58:02.845Z,0.60
2022-09-16T14:00:47.290Z,0.90
2022-09-16T14:03:45.709Z,0.70
2022-09-16T14:06:54.594Z,0.70
2022-09-16T14:10:12.367Z,0.83
2022-09-16T14:13:11.338Z,0.80
2022-09-16T14:15:46.403Z,0.80
2022-09-16T14:18:16.246Z,0.70
2022-09-16T14:21:01.778Z,0.60
2022-09-16T14:23:29.970Z,0.60
2022-09-16T14:25:57.445Z,0.50
2022-09-16T14:28:27.810Z,0.87
2022-09-16T14:31:00.063Z,0.83
2022-09-16T14:33:55.781Z,1.00
2022-09-16T14:36:30.533Z,0.70
2022-09-16T14:39:03.729Z,0.87
2022-09-16T14:41:48.877Z,1.03
2022-09-16T14:44:37.715Z,1.10
2022-09-16T14:47:28.351Z,1.70
2022-09-16T14:50:12.276Z,0.90
2022-09-16T14:52:39.575Z,0.70
2022-09-16T14:55:27.588Z,1.10
2022-09-16T14:57:54.610Z,0.80
2022-09-16T15:00:22.143Z,0.80
2022-09-16T15:03:29.455Z,0.73
2022-09-16T15:05:59.789Z,1.10
2022-09-16T15:08:49.957Z,0.70
2022-09-16T15:11:46.466Z,0.63
2022-09-16T15:14:10.101Z,1.13
2022-09-16T15:16:45.626Z,0.80
2022-09-16T15:19:36.214Z,0.90
2022-09-16T15:22:05.526Z,0.70
2022-09-16T15:24:34.321Z,0.57
2022-09-16T15:27:02.569Z,0.90
2022-09-16T15:29:36.755Z,0.70
2022-09-16T15:32:17.971Z,0.60
2022-09-16T15:34:45.905Z,0.97
2022-09-16T15:37:33.440Z,0.90
2022-09-16T15:40:32.219Z,0.80
2022-09-16T15:43:16.142Z,1.80
2022-09-16T15:45:45.468Z,1.13
2022-09-16T15:48:20.986Z,1.10
2022-09-16T15:51:02.161Z,1.23
2022-09-16T15:53:48.425Z,0.80
2022-09-16T15:56:40.465Z,1.10
2022-09-16T15:59:55.063Z,0.90
2022-09-16T16:02:35.169Z,1.20
2022-09-16T16:05:25.735Z,0.90
2022-09-16T16:07:57.260Z,1.20
2022-09-16T16:10:32.648Z,1.70
2022-09-16T16:13:04.166Z,1.73
2022-09-16T16:15:40.153Z,2.10
2022-09-16T16:18:10.690Z,3.47
2022-09-16T16:20:38.158Z,2.27
2022-09-16T16:23:05.246Z,1.70
2022-09-16T16:25:32.374Z,2.20
2022-09-16T16:27:59.302Z,1.90
2022-09-16T16:30:26.263Z,1.40
2022-09-16T16:32:53.192Z,1.73
2022-09-16T16:35:20.103Z,2.20
2022-09-16T16:37:47.766Z,2.40
2022-09-16T16:40:15.767Z,1.87
2022-09-16T16:42:44.033Z,2.00
2022-09-16T16:45:14.618Z,1.20
2022-09-16T16:47:44.609Z,2.10
2022-09-16T16:50:11.737Z,1.47
2022-09-16T16:52:38.941Z,1.07
2022-09-16T16:55:09.503Z,0.90
2022-09-16T16:57:36.360Z,0.90
2022-09-16T17:00:04.236Z,0.80
2022-09-16T17:02:31.182Z,0.60
2022-09-16T17:04:59.881Z,0.97
2022-09-16T17:07:27.975Z,1.10
2022-09-16T17:09:57.461Z,1.07
2022-09-16T17:12:26.034Z,1.00
2022-09-16T17:14:53.029Z,1.10
2022-09-16T17:17:20.003Z,1.20
2022-09-16T17:19:48.934Z,1.30
2022-09-16T17:22:16.113Z,1.20
2022-09-16T17:24:43.055Z,0.93
2022-09-16T17:27:10.083Z,0.90
2022-09-16T17:29:37.118Z,1.00
2022-09-16T17:32:04.344Z,0.77
2022-09-16T17:34:31.433Z,0.93
2022-09-16T17:36:59.086Z,2.07
2022-09-16T17:39:26.651Z,0.90
2022-09-16T17:41:56.760Z,1.20
2022-09-16T17:44:23.805Z,1.00
2022-09-16T17:46:50.892Z,1.03
2022-09-16T17:49:23.057Z,0.80
2022-09-16T17:51:51.125Z,0.70
2022-09-16T17:54:18.195Z,0.90
2022-09-16T17:56:45.417Z,0.90
2022-09-16T17:59:13.306Z,0.87
2022-09-16T18:01:40.496Z,1.03
2022-09-16T18:04:07.814Z,0.67
2022-09-16T18:06:46.307Z,1.03
2022-09-16T18:09:13.753Z,1.30
2022-09-16T18:11:41.012Z,1.00
2022-09-16T18:14:11.391Z,1.30
2022-09-16T18:16:39.210Z,0.73
2022-09-16T18:19:06.959Z,1.03
2022-09-16T18:21:34.098Z,1.10
2022-09-16T18:24:04.032Z,1.00
2022-09-16T18:26:32.609Z,0.73
2022-09-16T18:29:11.338Z,0.90
2022-09-16T18:31:44.840Z,0.60
2022-09-16T18:34:14.364Z,0.90
2022-09-16T18:36:41.800Z,0.77
2022-09-16T18:39:14.308Z,1.30
2022-09-16T18:41:42.535Z,2.63
2022-09-16T18:44:19.754Z,1.13
2022-09-16T18:46:47.196Z,1.30
2022-09-16T18:49:16.337Z,1.13
2022-09-16T18:51:50.969Z,1.13
2022-09-16T18:54:25.113Z,1.20
2022-09-16T18:56:52.932Z,1.57
2022-09-16T18:59:23.469Z,1.07
2022-09-16T19:01:52.533Z,1.43
2022-09-16T19:04:22.464Z,1.47
2022-09-16T19:06:51.799Z,1.20
2022-09-16T19:09:21.691Z,1.47
2022-09-16T19:11:49.890Z,1.10
2022-09-16T19:14:17.612Z,1.07
2022-09-16T19:16:45.823Z,1.20
2022-09-16T19:19:14.861Z,1.30
2022-09-16T19:21:43.257Z,1.27
2022-09-16T19:24:15.911Z,0.90
2022-09-16T19:26:47.065Z,1.70
2022-09-16T19:29:15.290Z,1.27
2022-09-16T19:31:45.091Z,0.93
2022-09-16T19:34:13.152Z,1.00
2022-09-16T19:36:41.072Z,1.47
2022-09-16T19:39:09.814Z,2.20
2022-09-16T19:41:39.004Z,1.37
2022-09-16T19:44:09.910Z,0.97
2022-09-16T19:46:39.055Z,1.47
2022-09-16T19:49:06.713Z,1.30
2022-09-16T19:51:34.047Z,1.20
2022-09-16T19:54:01.474Z,1.63
2022-09-16T19:56:33.882Z,1.20
2022-09-16T19:59:01.706Z,1.40
2022-09-16T20:01:32.028Z,2.30
2022-09-16T20:03:59.917Z,1.00
2022-09-16T20:06:30.853Z,1.43
2022-09-16T20:09:02.190Z,1.53
2022-09-16T20:11:32.968Z,1.57
2022-09-16T20:14:03.159Z,1.10
2022-09-16T20:16:35.689Z,1.40
2022-09-16T20:19:13.325Z,0.87
2022-09-16T20:21:40.370Z,1.10
2022-09-16T20:24:13.262Z,1.90
2022-09-16T20:26:40.170Z,1.53
2022-09-16T20:29:07.107Z,1.03
2022-09-16T20:31:36.681Z,1.67
2022-09-16T20:34:04.753Z,0.90
2022-09-16T20:36:35.649Z,1.60
2022-09-16T20:39:03.056Z,1.43
2022-09-16T20:41:32.556Z,1.30
2022-09-16T20:44:00.042Z,1.30
2022-09-16T20:46:34.499Z,1.30
2022-09-16T20:49:03.400Z,0.93
2022-09-16T20:51:32.135Z,1.27
2022-09-16T20:54:08.885Z,1.53
2022-09-16T20:56:41.289Z,1.43
2022-09-16T20:59:10.143Z,1.60
2022-09-16T21:01:38.979Z,1.50
2022-09-16T21:04:15.241Z,1.57
2022-09-16T21:06:42.380Z,1.03
2022-09-16T21:09:12.473Z,1.50
2022-09-16T21:11:44.696Z,1.10
2022-09-16T21:14:15.511Z,1.23
2022-09-16T21:16:43.594Z,1.00
2022-09-16T21:19:15.185Z,1.40
2022-09-16T21:21:44.890Z,1.00
2022-09-16T21:24:13.359Z,1.40
2022-09-16T21:26:41.490Z,1.50
2022-09-16T21:29:11.164Z,1.70
2022-09-16T21:31:41.289Z,1.10
2022-09-16T21:34:15.117Z,1.17
2022-09-16T21:36:44.739Z,1.70
2022-09-16T21:39:13.814Z,1.10
2022-09-16T21:41:41.117Z,1.50
2022-09-16T21:44:08.152Z,1.33
2022-09-16T21:46:41.812Z,2.20
2022-09-16T21:49:25.621Z,1.20
2022-09-16T21:51:54.602Z,1.40
2022-09-16T21:54:22.309Z,0.87
2022-09-16T21:56:50.501Z,1.30
2022-09-16T21:59:20.004Z,1.00
2022-09-16T22:01:47.861Z,1.90
2022-09-16T22:04:17.704Z,1.17
2022-09-16T22:06:44.871Z,1.30
2022-09-16T22:09:12.508Z,1.30
2022-09-16T22:11:41.261Z,1.63
2022-09-16T22:14:08.614Z,1.37
2022-09-16T22:16:37.498Z,1.57
2022-09-16T22:19:07.551Z,1.33
2022-09-16T22:21:36.385Z,1.40
2022-09-16T22:24:04.589Z,2.27
2022-09-16T22:26:32.546Z,1.70
2022-09-16T22:28:59.838Z,1.27
2022-09-16T22:31:29.373Z,1.23
2022-09-16T22:33:58.757Z,1.27
2022-09-16T22:36:27.382Z,1.23
2022-09-16T22:38:56.546Z,2.20
2022-09-16T22:41:24.681Z,2.17
2022-09-16T22:43:53.427Z,1.80
2022-09-16T22:46:26.110Z,2.10
2022-09-16T22:48:54.865Z,1.80
2022-09-16T22:51:22.211Z,1.23
2022-09-16T22:53:49.656Z,1.70
2022-09-16T22:56:19.195Z,1.80
2022-09-16T22:58:51.013Z,1.63
2022-09-16T23:01:20.093Z,1.63
2022-09-16T23:03:51.334Z,2.10
2022-09-16T23:06:18.241Z,1.50
2022-09-16T23:08:45.741Z,2.00
2022-09-16T23:11:15.252Z,1.97
2022-09-16T23:13:43.086Z,1.60
2022-09-16T23:16:15.766Z,1.80
2022-09-16T23:18:44.404Z,1.63
2022-09-16T23:21:17.124Z,1.63
2022-09-16T23:23:48.415Z,1.83
2022-09-16T23:26:23.179Z,1.70
2022-09-16T23:28:58.600Z,2.40
2022-09-16T23:31:29.518Z,2.07
2022-09-16T23:33:56.936Z,1.33
2022-09-16T23:36:25.833Z,1.37
2022-09-16T23:38:53.939Z,1.87
2022-09-16T23:41:24.160Z,1.30
2022-09-16T23:43:51.400Z,2.53
2022-09-16T23:46:20.890Z,2.27
2022-09-16T23:48:48.544Z,1.33
2022-09-16T23:51:15.404Z,1.90
2022-09-16T23:53:42.583Z,1.60
2022-09-16T23:56:12.194Z,2.23
2022-09-16T23:58:40.056Z,1.87
